Time;durP1;ratioP1;P1;durP2;ratioP2;P2;SDS_P1;SDS_P2;PMS_P1;PMS_P2;Temp;Humidity;BMP_temperature;BMP_pressure;BME280_temperature;BME280_humidity;BME280_pressure;Samples;Min_cycle;Max_cycle;Signal;HPM_P1;HPM_P2
2023/05/15 00:02:18;;;;;;;5.95;4.07;;;15.40;99.90;;;;;;5039707;28;20689;-77
2023/05/15 00:04:49;;;;;;;8.38;4.28;;;15.40;99.90;;;;;;5051644;28;20205;-77
2023/05/15 00:07:20;;;;;;;6.75;3.92;;;15.50;99.90;;;;;;5054092;28;20264;-78
2023/05/15 00:09:53;;;;;;;6.40;4.15;;;15.50;99.90;;;;;;5042672;28;20285;-78
2023/05/15 00:12:24;;;;;;;8.05;4.28;;;15.60;99.90;;;;;;5035295;28;20559;-77
2023/05/15 00:14:55;;;;;;;7.72;4.13;;;15.60;99.90;;;;;;5044033;28;20209;-78
2023/05/15 00:17:29;;;;;;;6.57;3.85;;;15.70;99.90;;;;;;5047074;28;20248;-76
2023/05/15 00:20:00;;;;;;;6.60;3.78;;;15.80;99.90;;;;;;5047415;28;20197;-78
2023/05/15 00:22:31;;;;;;;7.25;3.90;;;15.90;99.90;;;;;;5049652;28;20194;-76
2023/05/15 00:25:04;;;;;;;5.90;3.67;;;16.00;99.90;;;;;;5051006;28;20194;-78
2023/05/15 00:27:35;;;;;;;6.60;3.50;;;16.10;99.90;;;;;;5050734;28;20194;-78
2023/05/15 00:30:07;;;;;;;7.43;3.60;;;16.10;99.90;;;;;;5054337;28;20546;-78
2023/05/15 00:32:38;;;;;;;4.97;3.40;;;16.20;99.90;;;;;;5041802;28;20191;-78
2023/05/15 00:35:10;;;;;;;5.60;2.95;;;16.30;99.90;;;;;;5045141;28;20672;-77
2023/05/15 00:37:41;;;;;;;5.72;2.88;;;16.40;99.90;;;;;;5041336;28;20229;-76
2023/05/15 00:40:20;;;;;;;4.00;2.80;;;16.60;99.90;;;;;;5054147;28;20204;-79
2023/05/15 00:42:52;;;;;;;4.07;2.50;;;16.80;99.90;;;;;;5047515;28;20627;-78
2023/05/15 00:45:26;;;;;;;6.93;2.88;;;17.00;99.90;;;;;;5047047;28;20631;-78
2023/05/15 00:47:59;;;;;;;4.20;2.50;;;17.10;99.90;;;;;;5051809;28;20204;-78
2023/05/15 00:50:31;;;;;;;2.92;2.10;;;17.40;99.90;;;;;;5051243;28;20243;-78
2023/05/15 00:53:03;;;;;;;5.68;2.70;;;17.50;99.90;;;;;;5051403;28;20240;-78
2023/05/15 00:55:37;;;;;;;3.97;2.10;;;17.70;99.90;;;;;;5044093;28;20525;-78
2023/05/15 00:58:09;;;;;;;4.95;2.70;;;17.70;99.90;;;;;;5034872;28;20241;-78
2023/05/15 01:00:40;;;;;;;3.05;2.17;;;17.90;99.90;;;;;;5041684;28;20213;-78
2023/05/15 01:03:11;;;;;;;3.95;2.20;;;17.90;99.90;;;;;;5054135;28;20233;-77
2023/05/15 01:05:42;;;;;;;4.80;2.00;;;18.00;99.90;;;;;;5054351;28;20633;-78
2023/05/15 01:08:20;;;;;;;8.95;1.90;;;18.00;99.90;;;;;;5054453;28;20615;-78
2023/05/15 01:10:55;;;;;;;5.60;1.80;;;18.10;99.90;;;;;;5054662;28;20189;-78
2023/05/15 01:13:27;;;;;;;4.30;1.70;;;18.20;99.90;;;;;;5054491;28;20193;-79
2023/05/15 01:15:59;;;;;;;3.63;1.60;;;18.20;99.90;;;;;;5054310;28;20206;-77
2023/05/15 01:18:32;;;;;;;4.10;1.55;;;18.20;99.90;;;;;;5054140;28;20223;-77
2023/05/15 01:21:31;;;;;;;4.38;1.55;;;18.20;99.90;;;;;;5053976;28;20264;-79
2023/05/15 01:24:17;;;;;;;1.90;1.10;;;18.30;99.90;;;;;;5054092;28;20654;-78
2023/05/15 01:27:14;;;;;;;3.00;1.20;;;18.30;99.90;;;;;;5053963;28;20194;-78
2023/05/15 01:29:52;;;;;;;2.40;1.17;;;18.30;99.90;;;;;;5053934;28;20219;-78
2023/05/15 01:32:26;;;;;;;1.80;1.05;;;18.30;99.90;;;;;;5054186;28;20193;-78
2023/05/15 01:35:03;;;;;;;2.58;1.08;;;18.40;99.90;;;;;;5053635;28;20211;-77
2023/05/15 01:37:36;;;;;;;4.18;1.30;;;18.40;99.90;;;;;;5053669;28;20233;-78
2023/05/15 01:40:10;;;;;;;4.00;1.10;;;18.50;99.90;;;;;;5053717;28;20190;-78
2023/05/15 01:42:50;;;;;;;1.98;1.00;;;18.50;99.90;;;;;;5054047;28;20210;-77
2023/05/15 01:45:22;;;;;;;3.22;1.13;;;18.70;99.90;;;;;;5053673;28;20196;-74
2023/05/15 01:47:57;;;;;;;2.58;1.27;;;18.80;99.90;;;;;;5053554;28;20194;-74
2023/05/15 01:50:32;;;;;;;1.58;1.10;;;18.80;99.90;;;;;;5053592;28;20228;-75
2023/05/15 01:53:04;;;;;;;4.50;0.98;;;18.90;99.90;;;;;;5052831;28;20193;-74
2023/05/15 01:55:38;;;;;;;3.67;0.98;;;18.90;99.90;;;;;;5050190;28;20204;-74
2023/05/15 01:58:12;;;;;;;4.05;1.10;;;18.90;99.90;;;;;;5053519;28;20288;-74
2023/05/15 02:00:44;;;;;;;1.92;0.90;;;18.90;99.90;;;;;;5053600;28;20199;-74
2023/05/15 02:03:16;;;;;;;1.85;0.80;;;18.90;99.90;;;;;;5053209;28;20200;-74
2023/05/15 02:05:48;;;;;;;0.98;0.82;;;18.90;99.90;;;;;;5052961;28;20197;-75
2023/05/15 02:08:19;;;;;;;2.10;0.70;;;18.90;99.90;;;;;;5053304;28;20561;-74
2023/05/15 02:10:51;;;;;;;1.67;0.80;;;18.80;99.90;;;;;;5053248;28;20251;-73
2023/05/15 02:13:26;;;;;;;1.55;0.60;;;18.80;99.90;;;;;;5053328;28;20200;-73
2023/05/15 02:15:57;;;;;;;2.85;0.80;;;18.80;99.90;;;;;;5053813;28;20643;-74
2023/05/15 02:18:29;;;;;;;6.18;1.02;;;18.90;99.90;;;;;;5053125;28;20680;-74
2023/05/15 02:21:01;;;;;;;4.75;0.90;;;18.90;99.90;;;;;;5053188;28;20190;-74
2023/05/15 02:23:32;;;;;;;1.67;0.90;;;18.90;99.90;;;;;;5053344;28;20532;-74
2023/05/15 02:26:20;;;;;;;4.00;0.80;;;19.00;99.90;;;;;;5053299;28;20194;-74
2023/05/15 02:29:02;;;;;;;2.97;0.60;;;19.00;99.90;;;;;;5053202;28;20587;-74
2023/05/15 02:31:37;;;;;;;2.03;0.60;;;19.10;99.90;;;;;;5053393;28;20547;-74
2023/05/15 02:34:18;;;;;;;2.00;0.82;;;19.10;99.90;;;;;;5053138;28;20221;-74
2023/05/15 02:36:52;;;;;;;2.53;0.77;;;19.10;99.90;;;;;;5053183;28;20194;-74
2023/05/15 02:39:25;;;;;;;2.67;0.68;;;19.20;99.90;;;;;;5053399;28;20601;-74
2023/05/15 02:41:56;;;;;;;2.22;0.73;;;19.20;99.90;;;;;;5053313;28;20193;-74
2023/05/15 02:44:30;;;;;;;2.05;0.60;;;19.20;99.90;;;;;;5053072;28;20194;-74
2023/05/15 02:47:02;;;;;;;0.57;0.40;;;19.20;99.90;;;;;;5052830;28;20190;-74
2023/05/15 02:49:33;;;;;;;1.25;0.38;;;19.20;99.90;;;;;;5053322;28;20198;-74
2023/05/15 02:52:04;;;;;;;1.30;0.60;;;19.10;99.90;;;;;;5053775;28;20197;-74
2023/05/15 02:54:35;;;;;;;2.70;0.70;;;19.20;99.90;;;;;;5053138;28;20189;-74
2023/05/15 02:57:06;;;;;;;1.77;0.75;;;19.10;99.90;;;;;;5052956;28;20648;-74
2023/05/15 02:59:40;;;;;;;3.03;0.85;;;19.20;99.90;;;;;;5052956;28;20194;-74
2023/05/15 03:02:11;;;;;;;2.63;0.77;;;19.30;99.90;;;;;;5052595;28;20233;-74
2023/05/15 03:04:42;;;;;;;3.22;1.25;;;19.50;99.90;;;;;;5052994;28;20553;-74
2023/05/15 03:07:14;;;;;;;1.60;0.60;;;19.70;99.90;;;;;;5053930;28;20200;-74
2023/05/15 03:09:45;;;;;;;1.35;0.63;;;19.90;99.90;;;;;;5052861;28;20595;-74
2023/05/15 03:12:16;;;;;;;0.80;0.60;;;19.90;99.90;;;;;;5052889;28;20194;-74
2023/05/15 03:14:49;;;;;;;2.17;0.65;;;19.90;99.90;;;;;;5052725;28;20637;-74
2023/05/15 03:17:20;;;;;;;1.48;0.90;;;19.80;99.90;;;;;;5055690;28;20201;-74
2023/05/15 03:19:51;;;;;;;2.40;0.70;;;19.80;99.90;;;;;;5056361;28;20193;-74
2023/05/15 03:22:22;;;;;;;1.65;0.65;;;19.70;99.90;;;;;;5056554;28;20629;-74
2023/05/15 03:24:53;;;;;;;1.13;0.68;;;19.60;99.90;;;;;;5056278;28;20196;-74
2023/05/15 03:27:24;;;;;;;1.35;0.85;;;19.60;99.90;;;;;;5056332;28;20201;-74
2023/05/15 03:29:57;;;;;;;3.33;1.38;;;19.60;99.90;;;;;;5056172;28;20186;-74
2023/05/15 03:32:29;;;;;;;2.67;0.65;;;19.60;99.90;;;;;;5056174;28;20185;-74
2023/05/15 03:35:00;;;;;;;2.65;0.70;;;19.60;99.90;;;;;;5056185;28;20205;-74
2023/05/15 03:37:31;;;;;;;1.48;0.50;;;19.60;99.90;;;;;;5055855;28;20237;-75
2023/05/15 03:40:02;;;;;;;2.38;0.65;;;19.60;99.90;;;;;;5056375;28;20200;-71
2023/05/15 03:42:34;;;;;;;2.33;1.13;;;19.50;99.90;;;;;;5056424;28;20185;-72
2023/05/15 03:45:08;;;;;;;2.42;0.60;;;19.60;99.90;;;;;;5055725;28;20634;-71
2023/05/15 03:47:39;;;;;;;2.20;0.40;;;19.50;99.90;;;;;;5055880;28;20289;-71
2023/05/15 03:50:10;;;;;;;0.93;0.30;;;19.50;99.90;;;;;;5055875;28;20193;-71
2023/05/15 03:52:42;;;;;;;4.78;0.50;;;19.30;99.90;;;;;;5055878;28;20194;-72
2023/05/15 03:55:14;;;;;;;1.65;0.40;;;19.10;99.90;;;;;;5053640;28;20199;-72
2023/05/15 03:57:45;;;;;;;2.10;0.40;;;18.90;99.90;;;;;;5055802;28;20214;-71
2023/05/15 04:00:18;;;;;;;2.53;0.50;;;18.70;99.90;;;;;;5055495;28;20190;-75
2023/05/15 04:02:49;;;;;;;1.15;0.50;;;18.60;99.90;;;;;;5055317;28;20229;-74
2023/05/15 04:05:21;;;;;;;1.70;0.70;;;18.60;99.90;;;;;;5055883;28;20197;-75
2023/05/15 04:07:52;;;;;;;2.75;0.70;;;18.60;99.90;;;;;;5055617;28;20194;-74
2023/05/15 04:10:23;;;;;;;1.48;0.40;;;18.60;99.90;;;;;;5055825;28;20200;-74
2023/05/15 04:12:54;;;;;;;3.88;0.40;;;18.50;99.90;;;;;;5055717;28;20664;-74
2023/05/15 04:15:29;;;;;;;2.88;0.50;;;18.40;99.90;;;;;;5055423;28;20269;-72
2023/05/15 04:18:00;;;;;;;2.78;0.30;;;18.40;99.90;;;;;;5055600;28;20223;-71
2023/05/15 04:20:32;;;;;;;3.67;0.77;;;18.40;99.90;;;;;;5055400;28;20204;-71
2023/05/15 04:23:04;;;;;;;2.33;0.77;;;18.40;99.90;;;;;;5055496;28;20287;-71
2023/05/15 04:25:35;;;;;;;3.58;0.90;;;18.40;99.90;;;;;;5055284;28;20265;-71
2023/05/15 04:28:07;;;;;;;2.65;0.57;;;18.40;99.90;;;;;;5054416;28;20228;-72
2023/05/15 04:30:40;;;;;;;3.25;0.90;;;18.40;99.90;;;;;;5055535;28;20201;-74
2023/05/15 04:33:12;;;;;;;3.42;0.85;;;18.40;99.90;;;;;;5055464;28;20641;-75
2023/05/15 04:35:44;;;;;;;2.88;0.70;;;18.30;99.90;;;;;;5054946;28;20197;-75
2023/05/15 04:38:15;;;;;;;4.68;0.70;;;18.30;99.90;;;;;;5054768;28;20233;-74
2023/05/15 04:40:46;;;;;;;3.85;0.70;;;18.30;99.90;;;;;;5055276;28;20193;-75
2023/05/15 04:43:17;;;;;;;3.40;0.75;;;18.30;99.90;;;;;;5054647;28;20652;-75
2023/05/15 04:45:50;;;;;;;3.00;0.75;;;18.40;99.90;;;;;;5054741;28;20570;-72
2023/05/15 04:48:21;;;;;;;1.67;0.55;;;18.40;99.90;;;;;;5054757;28;20573;-71
2023/05/15 04:50:52;;;;;;;3.50;1.15;;;18.50;99.90;;;;;;5054609;28;20197;-71
2023/05/15 04:53:23;;;;;;;1.75;0.60;;;18.60;99.90;;;;;;5054603;28;20200;-72
2023/05/15 04:55:54;;;;;;;2.42;0.70;;;18.60;99.90;;;;;;5054580;28;20201;-71
2023/05/15 04:58:25;;;;;;;2.28;0.70;;;18.60;99.90;;;;;;5054275;28;20677;-71
2023/05/15 05:00:59;;;;;;;2.28;0.60;;;18.60;99.90;;;;;;5054114;28;20205;-74
2023/05/15 05:03:30;;;;;;;2.55;0.60;;;18.70;99.90;;;;;;5054402;28;20186;-74
2023/05/15 05:06:01;;;;;;;1.85;0.70;;;18.70;99.90;;;;;;5054694;28;20259;-74
2023/05/15 05:08:32;;;;;;;2.05;0.50;;;18.70;99.90;;;;;;5054505;28;20190;-73
2023/05/15 05:11:03;;;;;;;1.40;0.40;;;18.80;99.90;;;;;;5054085;28;20633;-75
2023/05/15 05:13:34;;;;;;;2.55;0.68;;;18.70;99.90;;;;;;5054226;28;20186;-74
2023/05/15 05:16:08;;;;;;;2.13;0.50;;;18.60;99.90;;;;;;5054320;28;20197;-74
2023/05/15 05:18:39;;;;;;;2.00;0.70;;;18.60;99.90;;;;;;5054895;28;20673;-74
2023/05/15 05:21:10;;;;;;;2.45;0.60;;;18.50;99.90;;;;;;5054150;28;20190;-75
2023/05/15 05:23:41;;;;;;;2.08;0.60;;;18.50;99.90;;;;;;5054196;28;20641;-73
2023/05/15 05:26:12;;;;;;;1.40;0.68;;;18.40;99.90;;;;;;5053836;28;20199;-75
2023/05/15 05:28:43;;;;;;;1.52;0.60;;;18.40;99.90;;;;;;5053985;28;20209;-74
2023/05/15 05:31:16;;;;;;;2.03;0.70;;;18.40;99.90;;;;;;5053953;28;20558;-74
2023/05/15 05:33:48;;;;;;;1.63;0.70;;;18.40;99.90;;;;;;5053745;28;20645;-74
2023/05/15 05:36:19;;;;;;;2.22;0.60;;;18.40;99.90;;;;;;5053862;28;20193;-74
2023/05/15 05:38:50;;;;;;;1.30;0.60;;;18.50;99.90;;;;;;5053560;28;20229;-77
2023/05/15 05:41:21;;;;;;;1.92;0.65;;;18.50;99.90;;;;;;5053592;28;20189;-77
2023/05/15 05:43:52;;;;;;;1.50;0.70;;;18.60;99.90;;;;;;5053722;28;20194;-77
2023/05/15 05:46:26;;;;;;;1.50;0.68;;;18.70;99.90;;;;;;5053651;28;20189;-73
2023/05/15 05:48:57;;;;;;;1.08;0.63;;;18.70;99.90;;;;;;5053647;28;20193;-76
2023/05/15 05:51:28;;;;;;;3.20;0.65;;;18.70;99.90;;;;;;5053536;28;20193;-74
2023/05/15 05:53:59;;;;;;;3.92;0.80;;;18.80;99.90;;;;;;5053566;28;20196;-74
2023/05/15 05:56:30;;;;;;;3.10;0.85;;;18.80;99.90;;;;;;5050996;28;20198;-74
2023/05/15 05:59:01;;;;;;;1.80;0.70;;;18.80;99.90;;;;;;5053408;28;20262;-77
2023/05/15 06:01:34;;;;;;;1.55;0.75;;;18.80;99.90;;;;;;5053444;28;20233;-78
2023/05/15 06:04:06;;;;;;;2.40;0.70;;;18.70;99.90;;;;;;5054182;28;20185;-77
2023/05/15 06:06:37;;;;;;;2.30;0.70;;;18.70;99.90;;;;;;5053480;28;20561;-77
2023/05/15 06:09:08;;;;;;;1.73;0.85;;;18.60;99.90;;;;;;5053277;28;20186;-77
2023/05/15 06:11:39;;;;;;;5.22;0.80;;;18.50;99.90;;;;;;5053343;28;20277;-77
2023/05/15 06:14:10;;;;;;;2.08;0.73;;;18.40;99.90;;;;;;5053731;28;20201;-77
2023/05/15 06:16:43;;;;;;;1.33;0.70;;;18.40;99.90;;;;;;5053343;28;20189;-77
2023/05/15 06:19:15;;;;;;;2.63;0.85;;;18.40;99.90;;;;;;5053483;28;20217;-77
2023/05/15 06:21:46;;;;;;;2.80;0.93;;;18.30;99.90;;;;;;5053283;28;20767;-76
2023/05/15 06:24:17;;;;;;;2.00;0.70;;;18.30;99.90;;;;;;5053550;28;20200;-77
2023/05/15 06:26:48;;;;;;;1.80;0.85;;;18.30;99.90;;;;;;5053359;28;20200;-77
2023/05/15 06:29:20;;;;;;;1.42;0.70;;;18.30;99.90;;;;;;5053266;28;20216;-76
2023/05/15 06:31:53;;;;;;;2.90;0.80;;;18.30;99.90;;;;;;5053191;28;20190;-74
2023/05/15 06:34:24;;;;;;;1.48;0.77;;;18.30;99.90;;;;;;5054083;28;20205;-74
2023/05/15 06:36:55;;;;;;;1.83;0.70;;;18.20;99.90;;;;;;5053502;28;20229;-75
2023/05/15 06:39:26;;;;;;;2.10;1.00;;;18.20;99.90;;;;;;5052973;28;20221;-77
2023/05/15 06:42:00;;;;;;;1.92;0.70;;;18.20;99.90;;;;;;5053118;28;20215;-77
2023/05/15 06:44:31;;;;;;;1.95;0.80;;;18.10;99.90;;;;;;5053087;28;20272;-76
2023/05/15 06:47:04;;;;;;;1.92;0.93;;;18.00;99.90;;;;;;5053039;28;20259;-77
2023/05/15 06:49:36;;;;;;;2.83;0.70;;;18.00;99.90;;;;;;5053022;28;20200;-77
2023/05/15 06:52:07;;;;;;;1.88;0.70;;;17.90;99.90;;;;;;5055602;28;20624;-77
2023/05/15 06:54:39;;;;;;;2.67;0.70;;;17.80;99.90;;;;;;5054310;28;20208;-77
2023/05/15 06:57:10;;;;;;;2.28;0.60;;;17.70;99.90;;;;;;5047717;28;20198;-76
2023/05/15 06:59:41;;;;;;;2.80;0.90;;;17.70;99.90;;;;;;5056064;28;20217;-77
2023/05/15 07:02:14;;;;;;;3.47;1.40;;;17.60;99.90;;;;;;5048568;28;20689;-76
2023/05/15 07:04:45;;;;;;;2.25;0.90;;;17.60;99.90;;;;;;5042914;28;20202;-77
2023/05/15 07:07:17;;;;;;;2.55;0.70;;;17.50;99.90;;;;;;5056638;28;20193;-77
2023/05/15 07:09:49;;;;;;;1.90;1.02;;;17.50;99.90;;;;;;5053706;28;20723;-76
2023/05/15 07:12:20;;;;;;;1.40;0.80;;;17.40;99.90;;;;;;5042259;28;20218;-76
2023/05/15 07:14:51;;;;;;;2.33;0.77;;;17.30;99.90;;;;;;5041580;28;20646;-76
2023/05/15 07:17:24;;;;;;;1.70;0.60;;;17.30;99.90;;;;;;5053450;28;20590;-77
2023/05/15 07:19:55;;;;;;;3.80;0.90;;;17.30;99.90;;;;;;5036440;28;20222;-76
2023/05/15 07:22:28;;;;;;;1.88;0.90;;;17.20;99.90;;;;;;5045194;28;20247;-75
2023/05/15 07:24:59;;;;;;;5.07;1.05;;;17.20;99.90;;;;;;5054670;28;20653;-74
2023/05/15 07:27:30;;;;;;;2.38;1.02;;;17.10;99.90;;;;;;5050028;28;20206;-76
2023/05/15 07:30:02;;;;;;;2.65;1.00;;;17.00;99.90;;;;;;5051168;28;20197;-77
2023/05/15 07:32:35;;;;;;;2.33;0.80;;;17.00;99.90;;;;;;5050907;28;20251;-76
2023/05/15 07:35:07;;;;;;;1.35;0.88;;;16.90;99.90;;;;;;5042652;28;20194;-75
2023/05/15 07:37:38;;;;;;;1.63;0.63;;;16.90;99.90;;;;;;5048086;28;20234;-77
2023/05/15 07:40:10;;;;;;;1.42;0.98;;;16.80;99.90;;;;;;5038892;28;20218;-76
2023/05/15 07:42:41;;;;;;;2.67;1.05;;;16.80;99.90;;;;;;5044502;28;20233;-77
2023/05/15 07:45:13;;;;;;;1.20;1.00;;;16.70;99.90;;;;;;5052659;28;20208;-75
2023/05/15 07:47:48;;;;;;;3.35;1.75;;;16.70;99.90;;;;;;5050952;28;20198;-77
2023/05/15 07:50:20;;;;;;;3.53;2.00;;;16.60;99.90;;;;;;5044904;28;20193;-76
2023/05/15 07:52:51;;;;;;;3.75;1.63;;;16.50;99.90;;;;;;5035822;28;20653;-76
2023/05/15 07:55:22;;;;;;;2.53;1.60;;;16.50;99.90;;;;;;5037859;28;20204;-77
2023/05/15 07:57:53;;;;;;;1.33;1.20;;;16.50;99.90;;;;;;5048246;28;20671;-77
2023/05/15 08:00:24;;;;;;;2.90;1.35;;;16.40;99.90;;;;;;5044183;28;20218;-77
2023/05/15 08:02:57;;;;;;;2.78;1.33;;;16.40;99.90;;;;;;5044119;28;20240;-76
2023/05/15 08:05:29;;;;;;;3.40;1.50;;;16.30;99.90;;;;;;5044688;28;20202;-77
2023/05/15 08:08:00;;;;;;;2.65;1.40;;;16.30;99.90;;;;;;5052529;28;20201;-77
2023/05/15 08:10:31;;;;;;;2.45;1.33;;;16.30;99.90;;;;;;5050000;28;20661;-77
2023/05/15 08:13:02;;;;;;;2.47;1.30;;;16.30;99.90;;;;;;5040047;28;20193;-77
2023/05/15 08:15:34;;;;;;;2.53;1.90;;;16.30;99.90;;;;;;5042992;28;20191;-77
2023/05/15 08:18:11;;;;;;;2.80;2.50;;;16.20;99.90;;;;;;5053725;28;20197;-76
2023/05/15 08:20:42;;;;;;;6.47;3.00;;;16.20;99.90;;;;;;5041020;28;20210;-76
2023/05/15 08:23:13;;;;;;;5.70;4.22;;;16.10;99.90;;;;;;5045427;28;20198;-77
2023/05/15 08:25:44;;;;;;;4.28;3.58;;;16.10;99.90;;;;;;5053303;28;20216;-74
2023/05/15 08:28:15;;;;;;;4.63;2.40;;;16.00;99.90;;;;;;5040841;28;20220;-74
2023/05/15 08:30:46;;;;;;;4.03;1.77;;;16.00;99.90;;;;;;5039596;28;20202;-75
2023/05/15 08:33:19;;;;;;;2.80;1.58;;;15.90;99.90;;;;;;5050321;28;20563;-78
2023/05/15 08:35:51;;;;;;;1.95;1.50;;;15.90;99.90;;;;;;5034651;28;20198;-77
2023/05/15 08:38:22;;;;;;;2.75;1.80;;;15.90;99.90;;;;;;5035079;28;20258;-77
2023/05/15 08:40:54;;;;;;;2.58;1.40;;;15.90;99.90;;;;;;5051737;28;20266;-77
2023/05/15 08:43:27;;;;;;;2.72;1.75;;;15.90;99.90;;;;;;5043083;28;20190;-77
2023/05/15 08:45:59;;;;;;;2.45;1.70;;;15.90;99.90;;;;;;5034907;28;20529;-78
2023/05/15 08:48:33;;;;;;;4.03;1.95;;;15.80;99.90;;;;;;5034758;28;20664;-77
2023/05/15 08:51:04;;;;;;;2.67;2.10;;;15.90;99.90;;;;;;5035263;28;20285;-77
2023/05/15 08:53:35;;;;;;;3.33;2.50;;;15.80;99.90;;;;;;5042128;28;20203;-77
2023/05/15 08:56:07;;;;;;;3.63;2.40;;;15.80;99.90;;;;;;5044200;28;20190;-77
2023/05/15 08:58:38;;;;;;;5.13;2.53;;;15.80;99.90;;;;;;5054629;28;20189;-77
2023/05/15 09:01:10;;;;;;;5.30;2.38;;;15.80;99.90;;;;;;5042806;28;20564;-77
2023/05/15 09:03:43;;;;;;;4.80;2.72;;;15.70;99.90;;;;;;5034762;28;20194;-78
2023/05/15 09:06:15;;;;;;;6.78;3.17;;;15.70;99.90;;;;;;5034698;28;20186;-78
2023/05/15 09:08:48;;;;;;;5.75;3.30;;;15.60;99.90;;;;;;5039517;28;20196;-77
2023/05/15 09:11:20;;;;;;;5.65;3.10;;;15.60;99.90;;;;;;5053527;28;20211;-77
2023/05/15 09:13:51;;;;;;;5.22;3.30;;;15.60;99.90;;;;;;5054131;28;20196;-77
2023/05/15 09:16:23;;;;;;;4.55;3.10;;;15.60;99.90;;;;;;5048914;28;20224;-77
2023/05/15 09:18:56;;;;;;;3.60;2.70;;;15.60;99.90;;;;;;5049145;28;20194;-77
2023/05/15 09:21:28;;;;;;;3.80;2.78;;;15.60;99.90;;;;;;5051572;28;20657;-77
2023/05/15 09:24:18;;;;;;;3.50;2.42;;;15.50;99.90;;;;;;5045805;28;20197;-77
2023/05/15 09:27:03;;;;;;;4.40;2.92;;;15.50;99.90;;;;;;5047772;28;20208;-77
2023/05/15 09:29:35;;;;;;;5.28;3.00;;;15.50;99.90;;;;;;5039337;28;20552;-77
2023/05/15 09:32:08;;;;;;;3.50;2.40;;;15.50;99.90;;;;;;5050091;28;20236;-77
2023/05/15 09:34:42;;;;;;;4.25;2.90;;;15.50;99.90;;;;;;5049342;28;20212;-77
2023/05/15 09:37:29;;;;;;;4.95;2.75;;;15.50;99.90;;;;;;5044615;28;20217;-77
2023/05/15 09:40:10;;;;;;;5.20;3.00;;;15.50;99.90;;;;;;5048371;28;20271;-78
2023/05/15 09:42:42;;;;;;;5.13;2.78;;;15.50;99.90;;;;;;5034809;28;20559;-77
2023/05/15 09:45:20;;;;;;;5.53;2.88;;;15.40;99.90;;;;;;5044326;28;20193;-77
2023/05/15 09:47:51;;;;;;;4.63;2.80;;;15.40;99.90;;;;;;5039470;28;20578;-77
2023/05/15 09:50:33;;;;;;;6.05;3.30;;;15.40;99.90;;;;;;5039146;28;20190;-77
2023/05/15 09:53:04;;;;;;;5.03;3.10;;;15.30;99.90;;;;;;5039801;28;20204;-77
2023/05/15 09:55:36;;;;;;;5.63;3.10;;;15.30;99.90;;;;;;5045976;28;20209;-76
2023/05/15 09:58:12;;;;;;;5.60;3.50;;;15.30;99.90;;;;;;5037446;28;20201;-77
2023/05/15 10:00:43;;;;;;;6.68;3.45;;;15.30;99.90;;;;;;5042490;28;20300;-77
2023/05/15 10:03:15;;;;;;;6.68;3.50;;;15.30;99.90;;;;;;5047553;28;20237;-74
2023/05/15 10:05:48;;;;;;;4.00;3.00;;;15.20;99.90;;;;;;5037701;28;20278;-77
2023/05/15 10:08:29;;;;;;;6.63;3.08;;;15.20;99.90;;;;;;5048970;28;20653;-77
2023/05/15 10:11:03;;;;;;;5.97;3.70;;;15.30;99.90;;;;;;5040592;28;20208;-77
2023/05/15 10:13:36;;;;;;;5.65;3.45;;;15.20;99.90;;;;;;5044522;28;20200;-77
2023/05/15 10:16:07;;;;;;;6.72;3.80;;;15.20;99.90;;;;;;5047845;28;20216;-77
2023/05/15 10:18:40;;;;;;;5.95;3.50;;;15.30;99.90;;;;;;5039779;28;20190;-77
2023/05/15 10:21:13;;;;;;;7.07;3.55;;;15.20;99.90;;;;;;5052427;28;20232;-77
2023/05/15 10:23:45;;;;;;;5.57;3.63;;;15.20;99.90;;;;;;5050011;28;20588;-77
2023/05/15 10:26:22;;;;;;;5.90;3.25;;;15.20;99.90;;;;;;5038033;28;20562;-77
2023/05/15 10:28:54;;;;;;;7.20;3.42;;;15.20;99.90;;;;;;5046561;28;20239;-77
2023/05/15 10:31:26;;;;;;;6.15;3.40;;;15.20;99.90;;;;;;5048097;28;20197;-77
2023/05/15 10:33:58;;;;;;;4.65;2.80;;;15.10;99.90;;;;;;5043821;28;20197;-77
2023/05/15 10:36:32;;;;;;;8.20;3.15;;;15.10;99.90;;;;;;5039771;28;20217;-77
2023/05/15 10:39:04;;;;;;;5.03;2.90;;;15.10;99.90;;;;;;5039811;28;20211;-77
2023/05/15 10:41:38;;;;;;;5.78;3.25;;;15.10;99.90;;;;;;5040026;28;20218;-77
2023/05/15 10:44:09;;;;;;;5.18;2.78;;;15.10;99.90;;;;;;5042358;28;20194;-77
2023/05/15 10:46:41;;;;;;;7.75;3.08;;;15.10;99.90;;;;;;5041195;28;20668;-77
2023/05/15 10:49:12;;;;;;;4.88;3.03;;;15.10;99.90;;;;;;5039704;28;20204;-78
2023/05/15 10:51:45;;;;;;;8.00;3.50;;;15.10;99.90;;;;;;5040053;28;20213;-78
2023/05/15 10:54:17;;;;;;;6.05;3.30;;;15.00;99.90;;;;;;5039998;28;20198;-78
2023/05/15 10:56:48;;;;;;;7.68;3.47;;;15.00;99.90;;;;;;5046618;28;20545;-77
2023/05/15 10:59:20;;;;;;;5.50;3.28;;;14.90;99.90;;;;;;5039612;28;20207;-77
2023/05/15 11:01:51;;;;;;;5.72;3.30;;;14.90;99.90;;;;;;5044091;28;20237;-78
2023/05/15 11:04:25;;;;;;;6.13;3.40;;;14.80;99.90;;;;;;5045775;28;20208;-77
2023/05/15 11:07:15;;;;;;;4.55;3.25;;;14.80;99.90;;;;;;5049649;28;20233;-77
2023/05/15 11:09:47;;;;;;;5.20;3.58;;;14.80;99.90;;;;;;5043260;28;20204;-76
2023/05/15 11:12:18;;;;;;;7.68;4.05;;;14.80;99.90;;;;;;5045529;28;20198;-77
2023/05/15 11:15:22;;;;;;;6.68;3.70;;;14.70;99.90;;;;;;5044414;28;20200;-77
2023/05/15 11:18:09;;;;;;;6.10;3.53;;;14.70;99.90;;;;;;5039165;28;20197;-78
2023/05/15 11:20:44;;;;;;;8.27;3.92;;;14.70;99.90;;;;;;5041828;28;20297;-75
2023/05/15 11:23:17;;;;;;;5.22;3.42;;;14.70;99.90;;;;;;5039095;28;20229;-77
2023/05/15 11:25:57;;;;;;;6.60;3.70;;;14.70;99.90;;;;;;5045793;28;20190;-77
2023/05/15 11:28:29;;;;;;;7.55;4.25;;;14.70;99.90;;;;;;5044297;28;20205;-77
2023/05/15 11:31:07;;;;;;;5.18;3.80;;;14.60;99.90;;;;;;5042825;28;20201;-77
2023/05/15 11:33:41;;;;;;;5.80;3.67;;;14.70;99.90;;;;;;5038848;28;20226;-77
2023/05/15 11:36:14;;;;;;;5.40;3.47;;;14.70;99.90;;;;;;5035735;28;20201;-77
2023/05/15 11:38:52;;;;;;;6.32;3.58;;;14.60;99.90;;;;;;5051841;28;20198;-76
2023/05/15 11:41:28;;;;;;;6.65;3.60;;;14.60;99.90;;;;;;5042866;28;20700;-75
2023/05/15 11:44:00;;;;;;;6.97;4.05;;;14.60;99.90;;;;;;5051389;28;20644;-76
2023/05/15 11:46:31;;;;;;;6.85;4.15;;;14.60;99.90;;;;;;5040646;28;20193;-77
2023/05/15 11:49:02;;;;;;;7.45;4.70;;;14.60;99.90;;;;;;5049773;28;20645;-76
2023/05/15 11:51:34;;;;;;;8.88;5.28;;;14.70;99.90;;;;;;5040115;28;20205;-76
2023/05/15 11:54:07;;;;;;;7.85;4.82;;;14.70;99.90;;;;;;5049858;28;20194;-77
2023/05/15 11:56:43;;;;;;;10.35;5.75;;;14.70;99.90;;;;;;5048097;28;20597;-77
2023/05/15 11:59:16;;;;;;;9.93;6.07;;;14.60;99.90;;;;;;5040513;28;20198;-77
2023/05/15 12:01:48;;;;;;;9.10;5.72;;;14.70;99.90;;;;;;5041709;28;20241;-74
2023/05/15 12:04:20;;;;;;;7.80;4.97;;;14.60;99.90;;;;;;5055347;28;20270;-74
2023/05/15 12:06:51;;;;;;;7.07;4.47;;;14.60;99.90;;;;;;5049448;28;20209;-75
2023/05/15 12:09:26;;;;;;;9.70;5.30;;;14.50;99.90;;;;;;5036735;28;20209;-74
2023/05/15 12:11:57;;;;;;;8.77;4.90;;;14.50;99.90;;;;;;5036876;28;20632;-74
2023/05/15 12:14:32;;;;;;;7.65;5.32;;;14.40;99.90;;;;;;5051888;28;20204;-74
2023/05/15 12:17:04;;;;;;;8.88;5.65;;;14.40;99.90;;;;;;5046629;28;20276;-76
2023/05/15 12:19:37;;;;;;;8.60;5.20;;;14.30;99.90;;;;;;5037535;28;20613;-77
2023/05/15 12:22:09;;;;;;;9.02;5.32;;;14.30;99.90;;;;;;5041663;28;20220;-74
2023/05/15 12:24:44;;;;;;;7.88;4.78;;;14.30;99.90;;;;;;5039659;28;20206;-76
2023/05/15 12:27:16;;;;;;;7.72;5.03;;;14.30;99.90;;;;;;5040392;28;20197;-76
2023/05/15 12:29:47;;;;;;;7.35;4.95;;;14.20;99.90;;;;;;5043587;28;20190;-77
2023/05/15 12:32:18;;;;;;;7.30;4.90;;;14.20;99.90;;;;;;5051446;28;20692;-77
2023/05/15 12:34:50;;;;;;;8.75;5.07;;;14.20;99.90;;;;;;5041245;28;20220;-76
2023/05/15 12:37:22;;;;;;;7.65;5.00;;;14.20;99.90;;;;;;5052586;28;20213;-77
2023/05/15 12:39:57;;;;;;;8.20;4.97;;;14.10;99.90;;;;;;5041181;28;20288;-78
2023/05/15 12:42:28;;;;;;;7.35;4.85;;;14.10;99.90;;;;;;5053422;28;20196;-74
2023/05/15 12:45:01;;;;;;;10.32;5.05;;;14.10;99.90;;;;;;5044786;28;20568;-77
2023/05/15 12:47:32;;;;;;;9.95;6.53;;;14.10;99.90;;;;;;5052016;28;20563;-77
2023/05/15 12:50:03;;;;;;;6.38;4.70;;;14.10;99.90;;;;;;5053878;28;20197;-78
2023/05/15 12:52:35;;;;;;;10.60;5.70;;;14.10;99.90;;;;;;5034761;28;20648;-77
2023/05/15 12:55:08;;;;;;;8.18;5.05;;;14.10;99.90;;;;;;5034619;28;20196;-77
2023/05/15 12:57:39;;;;;;;8.23;5.50;;;14.10;99.90;;;;;;5035035;28;20306;-77
2023/05/15 13:00:14;;;;;;;8.63;5.93;;;14.10;99.90;;;;;;5034634;28;20197;-77
2023/05/15 13:02:46;;;;;;;8.25;5.35;;;14.10;99.90;;;;;;5034515;28;20229;-77
2023/05/15 13:05:17;;;;;;;8.77;5.57;;;14.10;99.90;;;;;;5043149;28;20194;-78
2023/05/15 13:07:52;;;;;;;10.02;6.13;;;14.10;99.90;;;;;;5048441;28;20221;-77
2023/05/15 13:10:26;;;;;;;7.90;5.53;;;14.10;99.90;;;;;;5052577;28;20230;-77
2023/05/15 13:12:59;;;;;;;9.25;5.53;;;14.00;99.90;;;;;;5052838;28;20203;-77
2023/05/15 13:15:32;;;;;;;8.57;5.30;;;14.10;99.90;;;;;;5051876;28;20194;-77